sensor_id;sensor_type;location;lat;lon;timestamp;P1;durP1;ratioP1;P2;durP2;ratioP2
65871;SDS011;52653;50.080;21.992;2023-12-29T00:01:45;19.10;;;14.90;;
65871;SDS011;52653;50.080;21.992;2023-12-29T00:04:39;19.20;;;14.90;;
65871;SDS011;52653;50.080;21.992;2023-12-29T00:07:33;20.60;;;15.30;;
65871;SDS011;52653;50.080;21.992;2023-12-29T00:10:27;18.70;;;14.20;;
65871;SDS011;52653;50.080;21.992;2023-12-29T00:13:19;19.50;;;15.20;;
65871;SDS011;52653;50.080;21.992;2023-12-29T00:16:14;18.90;;;14.40;;
65871;SDS011;52653;50.080;21.992;2023-12-29T00:19:07;20.20;;;15.40;;
65871;SDS011;52653;50.080;21.992;2023-12-29T00:22:00;20.00;;;14.50;;
65871;SDS011;52653;50.080;21.992;2023-12-29T00:24:46;19.50;;;15.10;;
65871;SDS011;52653;50.080;21.992;2023-12-29T00:27:39;19.20;;;14.10;;
65871;SDS011;52653;50.080;21.992;2023-12-29T00:30:34;18.60;;;13.90;;
65871;SDS011;52653;50.080;21.992;2023-12-29T00:33:48;18.20;;;14.30;;
65871;SDS011;52653;50.080;21.992;2023-12-29T00:36:42;17.10;;;13.70;;
65871;SDS011;52653;50.080;21.992;2023-12-29T00:39:27;19.00;;;14.40;;
65871;SDS011;52653;50.080;21.992;2023-12-29T00:42:28;19.20;;;14.00;;
65871;SDS011;52653;50.080;21.992;2023-12-29T00:45:19;17.50;;;14.60;;
65871;SDS011;52653;50.080;21.992;2023-12-29T00:48:14;19.00;;;14.90;;
65871;SDS011;52653;50.080;21.992;2023-12-29T00:51:03;17.20;;;14.00;;
65871;SDS011;52653;50.080;21.992;2023-12-29T00:53:58;21.70;;;14.20;;
65871;SDS011;52653;50.080;21.992;2023-12-29T00:56:53;19.80;;;15.00;;
65871;SDS011;52653;50.080;21.992;2023-12-29T00:59:42;17.40;;;13.70;;
65871;SDS011;52653;50.080;21.992;2023-12-29T01:02:39;18.70;;;14.00;;
65871;SDS011;52653;50.080;21.992;2023-12-29T01:05:31;20.50;;;14.70;;
65871;SDS011;52653;50.080;21.992;2023-12-29T01:08:23;19.10;;;14.70;;
65871;SDS011;52653;50.080;21.992;2023-12-29T01:11:08;18.20;;;13.60;;
65871;SDS011;52653;50.080;21.992;2023-12-29T01:14:01;18.10;;;14.00;;
65871;SDS011;52653;50.080;21.992;2023-12-29T01:16:55;18.10;;;14.40;;
65871;SDS011;52653;50.080;21.992;2023-12-29T01:19:49;20.00;;;13.90;;
65871;SDS011;52653;50.080;21.992;2023-12-29T01:22:42;20.70;;;14.90;;
65871;SDS011;52653;50.080;21.992;2023-12-29T01:25:35;17.60;;;14.30;;
65871;SDS011;52653;50.080;21.992;2023-12-29T01:28:21;19.30;;;14.70;;
65871;SDS011;52653;50.080;21.992;2023-12-29T01:31:16;18.30;;;14.50;;
65871;SDS011;52653;50.080;21.992;2023-12-29T01:34:19;19.00;;;14.50;;
65871;SDS011;52653;50.080;21.992;2023-12-29T01:37:12;20.70;;;15.10;;
65871;SDS011;52653;50.080;21.992;2023-12-29T01:40:06;18.30;;;13.90;;
65871;SDS011;52653;50.080;21.992;2023-12-29T01:43:01;18.80;;;14.60;;
65871;SDS011;52653;50.080;21.992;2023-12-29T01:45:54;21.30;;;14.90;;
65871;SDS011;52653;50.080;21.992;2023-12-29T01:48:49;18.90;;;15.20;;
65871;SDS011;52653;50.080;21.992;2023-12-29T01:51:44;17.60;;;14.40;;
65871;SDS011;52653;50.080;21.992;2023-12-29T01:54:43;22.40;;;15.30;;
65871;SDS011;52653;50.080;21.992;2023-12-29T01:57:37;19.40;;;14.20;;
65871;SDS011;52653;50.080;21.992;2023-12-29T02:00:30;19.50;;;14.40;;
65871;SDS011;52653;50.080;21.992;2023-12-29T02:03:25;17.30;;;14.00;;
65871;SDS011;52653;50.080;21.992;2023-12-29T02:06:18;19.40;;;14.30;;
65871;SDS011;52653;50.080;21.992;2023-12-29T02:09:12;18.00;;;13.40;;
65871;SDS011;52653;50.080;21.992;2023-12-29T02:12:07;17.60;;;13.70;;
65871;SDS011;52653;50.080;21.992;2023-12-29T02:15:00;17.90;;;13.10;;
65871;SDS011;52653;50.080;21.992;2023-12-29T02:17:55;17.30;;;13.20;;
65871;SDS011;52653;50.080;21.992;2023-12-29T02:20:41;17.30;;;12.60;;
65871;SDS011;52653;50.080;21.992;2023-12-29T02:23:34;19.40;;;13.20;;
65871;SDS011;52653;50.080;21.992;2023-12-29T02:26:22;16.50;;;13.50;;
65871;SDS011;52653;50.080;21.992;2023-12-29T02:29:21;18.70;;;13.20;;
65871;SDS011;52653;50.080;21.992;2023-12-29T02:32:18;16.90;;;12.90;;
65871;SDS011;52653;50.080;21.992;2023-12-29T02:35:13;18.90;;;13.50;;
65871;SDS011;52653;50.080;21.992;2023-12-29T02:38:08;15.10;;;12.10;;
65871;SDS011;52653;50.080;21.992;2023-12-29T02:41:00;16.20;;;12.60;;
65871;SDS011;52653;50.080;21.992;2023-12-29T02:43:53;16.30;;;12.80;;
65871;SDS011;52653;50.080;21.992;2023-12-29T02:46:46;16.20;;;12.10;;
65871;SDS011;52653;50.080;21.992;2023-12-29T02:49:40;16.10;;;12.10;;
65871;SDS011;52653;50.080;21.992;2023-12-29T02:52:33;15.20;;;12.70;;
65871;SDS011;52653;50.080;21.992;2023-12-29T02:55:28;17.70;;;12.70;;
65871;SDS011;52653;50.080;21.992;2023-12-29T02:58:21;15.40;;;12.70;;
65871;SDS011;52653;50.080;21.992;2023-12-29T03:01:16;15.60;;;12.30;;
65871;SDS011;52653;50.080;21.992;2023-12-29T03:04:29;16.10;;;13.10;;
65871;SDS011;52653;50.080;21.992;2023-12-29T03:07:24;16.80;;;11.90;;
65871;SDS011;52653;50.080;21.992;2023-12-29T03:10:17;16.00;;;12.40;;
65871;SDS011;52653;50.080;21.992;2023-12-29T03:13:11;17.00;;;12.80;;
65871;SDS011;52653;50.080;21.992;2023-12-29T03:16:05;17.70;;;13.20;;
65871;SDS011;52653;50.080;21.992;2023-12-29T03:18:52;16.70;;;12.70;;
65871;SDS011;52653;50.080;21.992;2023-12-29T03:21:47;16.30;;;13.10;;
65871;SDS011;52653;50.080;21.992;2023-12-29T03:24:41;17.00;;;13.40;;
65871;SDS011;52653;50.080;21.992;2023-12-29T03:27:54;16.70;;;13.40;;
65871;SDS011;52653;50.080;21.992;2023-12-29T03:30:49;17.50;;;13.80;;
65871;SDS011;52653;50.080;21.992;2023-12-29T03:33:42;18.30;;;13.60;;
65871;SDS011;52653;50.080;21.992;2023-12-29T03:36:35;17.10;;;13.80;;
65871;SDS011;52653;50.080;21.992;2023-12-29T03:39:29;17.70;;;13.80;;
65871;SDS011;52653;50.080;21.992;2023-12-29T03:42:25;19.80;;;15.10;;
65871;SDS011;52653;50.080;21.992;2023-12-29T03:45:23;21.20;;;16.30;;
65871;SDS011;52653;50.080;21.992;2023-12-29T03:48:10;19.70;;;15.30;;
65871;SDS011;52653;50.080;21.992;2023-12-29T03:51:03;18.80;;;14.90;;
65871;SDS011;52653;50.080;21.992;2023-12-29T03:53:56;19.90;;;15.40;;
65871;SDS011;52653;50.080;21.992;2023-12-29T03:56:43;22.60;;;15.80;;
65871;SDS011;52653;50.080;21.992;2023-12-29T03:59:31;20.20;;;15.90;;
65871;SDS011;52653;50.080;21.992;2023-12-29T04:02:27;19.20;;;15.50;;
65871;SDS011;52653;50.080;21.992;2023-12-29T04:05:20;20.10;;;15.20;;
65871;SDS011;52653;50.080;21.992;2023-12-29T04:08:15;22.60;;;16.40;;
65871;SDS011;52653;50.080;21.992;2023-12-29T04:10:58;22.10;;;15.90;;
65871;SDS011;52653;50.080;21.992;2023-12-29T04:13:52;22.30;;;15.90;;
65871;SDS011;52653;50.080;21.992;2023-12-29T04:16:48;23.30;;;16.30;;
65871;SDS011;52653;50.080;21.992;2023-12-29T04:19:41;24.00;;;17.00;;
65871;SDS011;52653;50.080;21.992;2023-12-29T04:22:34;22.10;;;16.00;;
65871;SDS011;52653;50.080;21.992;2023-12-29T04:25:27;25.40;;;17.30;;
65871;SDS011;52653;50.080;21.992;2023-12-29T04:28:20;23.50;;;16.60;;
65871;SDS011;52653;50.080;21.992;2023-12-29T04:31:05;22.40;;;16.70;;
65871;SDS011;52653;50.080;21.992;2023-12-29T04:33:59;22.40;;;16.60;;
65871;SDS011;52653;50.080;21.992;2023-12-29T04:36:52;24.00;;;17.00;;
65871;SDS011;52653;50.080;21.992;2023-12-29T04:39:44;25.10;;;18.00;;
65871;SDS011;52653;50.080;21.992;2023-12-29T04:42:40;22.60;;;17.00;;
65871;SDS011;52653;50.080;21.992;2023-12-29T04:45:34;24.40;;;16.60;;
65871;SDS011;52653;50.080;21.992;2023-12-29T04:48:26;23.40;;;17.00;;
65871;SDS011;52653;50.080;21.992;2023-12-29T04:51:18;23.60;;;17.50;;
65871;SDS011;52653;50.080;21.992;2023-12-29T04:54:11;24.70;;;16.50;;
65871;SDS011;52653;50.080;21.992;2023-12-29T04:56:57;24.70;;;18.10;;
65871;SDS011;52653;50.080;21.992;2023-12-29T04:59:49;24.20;;;17.10;;
65871;SDS011;52653;50.080;21.992;2023-12-29T05:02:42;23.30;;;16.90;;
65871;SDS011;52653;50.080;21.992;2023-12-29T05:05:55;24.30;;;16.70;;
65871;SDS011;52653;50.080;21.992;2023-12-29T05:08:50;23.90;;;17.30;;
65871;SDS011;52653;50.080;21.992;2023-12-29T05:11:44;22.40;;;15.80;;
65871;SDS011;52653;50.080;21.992;2023-12-29T05:14:38;23.20;;;16.60;;
65871;SDS011;52653;50.080;21.992;2023-12-29T05:17:31;21.40;;;16.20;;
65871;SDS011;52653;50.080;21.992;2023-12-29T05:20:25;23.00;;;16.30;;
65871;SDS011;52653;50.080;21.992;2023-12-29T05:23:17;23.60;;;17.10;;
65871;SDS011;52653;50.080;21.992;2023-12-29T05:26:14;23.60;;;17.30;;
65871;SDS011;52653;50.080;21.992;2023-12-29T05:29:07;22.50;;;16.30;;
65871;SDS011;52653;50.080;21.992;2023-12-29T05:32:01;24.30;;;16.80;;
65871;SDS011;52653;50.080;21.992;2023-12-29T05:34:55;23.30;;;17.00;;
65871;SDS011;52653;50.080;21.992;2023-12-29T05:37:48;23.20;;;16.90;;
65871;SDS011;52653;50.080;21.992;2023-12-29T05:40:43;22.40;;;16.60;;
65871;SDS011;52653;50.080;21.992;2023-12-29T05:43:28;23.40;;;16.40;;
65871;SDS011;52653;50.080;21.992;2023-12-29T05:46:21;25.40;;;16.50;;
65871;SDS011;52653;50.080;21.992;2023-12-29T05:49:14;22.80;;;16.80;;
65871;SDS011;52653;50.080;21.992;2023-12-29T05:52:09;19.90;;;15.50;;
65871;SDS011;52653;50.080;21.992;2023-12-29T05:55:22;23.10;;;15.50;;
65871;SDS011;52653;50.080;21.992;2023-12-29T05:58:18;22.20;;;15.60;;
65871;SDS011;52653;50.080;21.992;2023-12-29T06:01:11;22.60;;;16.30;;
65871;SDS011;52653;50.080;21.992;2023-12-29T06:04:05;19.80;;;15.40;;
65871;SDS011;52653;50.080;21.992;2023-12-29T06:06:58;24.30;;;17.40;;
65871;SDS011;52653;50.080;21.992;2023-12-29T06:09:51;21.80;;;17.20;;
65871;SDS011;52653;50.080;21.992;2023-12-29T06:12:45;23.80;;;17.60;;
65871;SDS011;52653;50.080;21.992;2023-12-29T06:15:32;24.50;;;17.30;;
65871;SDS011;52653;50.080;21.992;2023-12-29T06:18:27;23.90;;;17.50;;
65871;SDS011;52653;50.080;21.992;2023-12-29T06:21:20;25.40;;;18.30;;
65871;SDS011;52653;50.080;21.992;2023-12-29T06:24:14;25.80;;;18.20;;
65871;SDS011;52653;50.080;21.992;2023-12-29T06:26:58;25.20;;;18.90;;
65871;SDS011;52653;50.080;21.992;2023-12-29T06:29:52;23.90;;;17.50;;
65871;SDS011;52653;50.080;21.992;2023-12-29T06:32:47;23.60;;;17.90;;
65871;SDS011;52653;50.080;21.992;2023-12-29T06:35:34;27.30;;;19.30;;
65871;SDS011;52653;50.080;21.992;2023-12-29T06:38:28;24.90;;;18.50;;
65871;SDS011;52653;50.080;21.992;2023-12-29T06:41:23;27.60;;;19.80;;
65871;SDS011;52653;50.080;21.992;2023-12-29T06:44:18;26.00;;;19.20;;
65871;SDS011;52653;50.080;21.992;2023-12-29T06:47:12;25.40;;;18.60;;
65871;SDS011;52653;50.080;21.992;2023-12-29T06:50:07;26.60;;;19.20;;
65871;SDS011;52653;50.080;21.992;2023-12-29T06:52:56;27.10;;;20.20;;
65871;SDS011;52653;50.080;21.992;2023-12-29T06:55:49;25.40;;;19.40;;
65871;SDS011;52653;50.080;21.992;2023-12-29T06:58:42;27.80;;;20.00;;
65871;SDS011;52653;50.080;21.992;2023-12-29T07:01:26;26.30;;;19.80;;
65871;SDS011;52653;50.080;21.992;2023-12-29T07:04:19;26.90;;;19.20;;
65871;SDS011;52653;50.080;21.992;2023-12-29T07:07:15;27.50;;;19.60;;
65871;SDS011;52653;50.080;21.992;2023-12-29T07:10:08;27.80;;;19.40;;
65871;SDS011;52653;50.080;21.992;2023-12-29T07:13:04;25.40;;;18.60;;
65871;SDS011;52653;50.080;21.992;2023-12-29T07:15:50;27.40;;;19.70;;
65871;SDS011;52653;50.080;21.992;2023-12-29T07:18:26;25.40;;;18.60;;
65871;SDS011;52653;50.080;21.992;2023-12-29T07:21:32;24.80;;;18.30;;
65871;SDS011;52653;50.080;21.992;2023-12-29T07:24:27;23.70;;;17.80;;
65871;SDS011;52653;50.080;21.992;2023-12-29T07:27:20;23.70;;;17.80;;
65871;SDS011;52653;50.080;21.992;2023-12-29T07:30:06;24.20;;;18.70;;
65871;SDS011;52653;50.080;21.992;2023-12-29T07:33:00;26.70;;;18.60;;
65871;SDS011;52653;50.080;21.992;2023-12-29T07:35:54;25.40;;;18.70;;
65871;SDS011;52653;50.080;21.992;2023-12-29T07:38:47;23.80;;;18.00;;
65871;SDS011;52653;50.080;21.992;2023-12-29T07:41:40;24.20;;;18.50;;
65871;SDS011;52653;50.080;21.992;2023-12-29T07:44:33;24.10;;;18.00;;
65871;SDS011;52653;50.080;21.992;2023-12-29T07:47:26;23.50;;;17.30;;
65871;SDS011;52653;50.080;21.992;2023-12-29T07:50:20;24.70;;;17.10;;
65871;SDS011;52653;50.080;21.992;2023-12-29T07:53:13;24.20;;;18.30;;
65871;SDS011;52653;50.080;21.992;2023-12-29T07:56:06;23.80;;;18.40;;
65871;SDS011;52653;50.080;21.992;2023-12-29T07:59:00;23.20;;;19.20;;
65871;SDS011;52653;50.080;21.992;2023-12-29T08:01:43;23.10;;;18.00;;
65871;SDS011;52653;50.080;21.992;2023-12-29T08:04:37;25.60;;;18.40;;
65871;SDS011;52653;50.080;21.992;2023-12-29T08:07:30;23.10;;;18.40;;
65871;SDS011;52653;50.080;21.992;2023-12-29T08:10:26;24.50;;;17.30;;
65871;SDS011;52653;50.080;21.992;2023-12-29T08:13:19;22.50;;;16.60;;
65871;SDS011;52653;50.080;21.992;2023-12-29T08:16:12;22.90;;;16.40;;
65871;SDS011;52653;50.080;21.992;2023-12-29T08:19:07;22.40;;;16.90;;
65871;SDS011;52653;50.080;21.992;2023-12-29T08:22:01;23.50;;;16.90;;
65871;SDS011;52653;50.080;21.992;2023-12-29T08:24:54;22.00;;;16.20;;
65871;SDS011;52653;50.080;21.992;2023-12-29T08:27:47;21.40;;;17.10;;
65871;SDS011;52653;50.080;21.992;2023-12-29T08:30:40;22.00;;;16.00;;
65871;SDS011;52653;50.080;21.992;2023-12-29T08:33:35;22.90;;;16.70;;
65871;SDS011;52653;50.080;21.992;2023-12-29T08:36:29;21.30;;;16.60;;
65871;SDS011;52653;50.080;21.992;2023-12-29T08:39:22;22.90;;;18.10;;
65871;SDS011;52653;50.080;21.992;2023-12-29T08:42:15;21.10;;;16.20;;
65871;SDS011;52653;50.080;21.992;2023-12-29T08:45:10;22.50;;;17.80;;
65871;SDS011;52653;50.080;21.992;2023-12-29T08:48:07;23.60;;;16.50;;
65871;SDS011;52653;50.080;21.992;2023-12-29T08:50:53;22.70;;;17.10;;
65871;SDS011;52653;50.080;21.992;2023-12-29T08:53:46;21.20;;;16.40;;
65871;SDS011;52653;50.080;21.992;2023-12-29T08:56:38;23.30;;;16.90;;
65871;SDS011;52653;50.080;21.992;2023-12-29T08:59:31;19.80;;;15.80;;
65871;SDS011;52653;50.080;21.992;2023-12-29T09:02:24;21.40;;;15.90;;
65871;SDS011;52653;50.080;21.992;2023-12-29T09:05:17;22.30;;;16.90;;
65871;SDS011;52653;50.080;21.992;2023-12-29T09:08:10;21.60;;;16.40;;
65871;SDS011;52653;50.080;21.992;2023-12-29T09:11:03;22.90;;;17.20;;
65871;SDS011;52653;50.080;21.992;2023-12-29T09:13:57;20.60;;;16.50;;
65871;SDS011;52653;50.080;21.992;2023-12-29T09:16:49;20.50;;;15.20;;
65871;SDS011;52653;50.080;21.992;2023-12-29T09:19:44;21.40;;;16.10;;
65871;SDS011;52653;50.080;21.992;2023-12-29T09:22:49;20.80;;;15.50;;
65871;SDS011;52653;50.080;21.992;2023-12-29T09:25:41;21.00;;;16.00;;
65871;SDS011;52653;50.080;21.992;2023-12-29T09:28:36;19.10;;;15.60;;
65871;SDS011;52653;50.080;21.992;2023-12-29T09:31:32;21.50;;;15.40;;
65871;SDS011;52653;50.080;21.992;2023-12-29T09:34:28;19.70;;;15.60;;
65871;SDS011;52653;50.080;21.992;2023-12-29T09:37:23;20.90;;;15.70;;
65871;SDS011;52653;50.080;21.992;2023-12-29T09:40:18;21.40;;;15.60;;
65871;SDS011;52653;50.080;21.992;2023-12-29T09:43:32;20.80;;;15.70;;
65871;SDS011;52653;50.080;21.992;2023-12-29T09:46:28;20.00;;;16.40;;
65871;SDS011;52653;50.080;21.992;2023-12-29T09:49:26;22.20;;;16.40;;
65871;SDS011;52653;50.080;21.992;2023-12-29T09:52:22;21.20;;;15.50;;
65871;SDS011;52653;50.080;21.992;2023-12-29T09:55:15;22.70;;;15.80;;
65871;SDS011;52653;50.080;21.992;2023-12-29T09:58:02;22.00;;;16.50;;
65871;SDS011;52653;50.080;21.992;2023-12-29T10:00:55;22.70;;;16.30;;
65871;SDS011;52653;50.080;21.992;2023-12-29T10:03:42;21.30;;;16.70;;
65871;SDS011;52653;50.080;21.992;2023-12-29T10:06:36;21.30;;;16.10;;
65871;SDS011;52653;50.080;21.992;2023-12-29T10:09:39;22.90;;;16.70;;
65871;SDS011;52653;50.080;21.992;2023-12-29T10:12:25;24.10;;;17.00;;
65871;SDS011;52653;50.080;21.992;2023-12-29T10:15:21;22.20;;;16.20;;
65871;SDS011;52653;50.080;21.992;2023-12-29T10:18:14;22.90;;;16.30;;
65871;SDS011;52653;50.080;21.992;2023-12-29T10:21:17;24.30;;;17.20;;
65871;SDS011;52653;50.080;21.992;2023-12-29T10:24:17;23.00;;;16.90;;
65871;SDS011;52653;50.080;21.992;2023-12-29T10:27:14;24.40;;;17.90;;
65871;SDS011;52653;50.080;21.992;2023-12-29T10:30:09;24.30;;;17.70;;
65871;SDS011;52653;50.080;21.992;2023-12-29T10:33:20;25.90;;;18.90;;
65871;SDS011;52653;50.080;21.992;2023-12-29T10:36:08;24.30;;;18.20;;
65871;SDS011;52653;50.080;21.992;2023-12-29T10:39:06;24.80;;;18.10;;
65871;SDS011;52653;50.080;21.992;2023-12-29T10:42:09;23.50;;;17.00;;
65871;SDS011;52653;50.080;21.992;2023-12-29T10:45:07;24.60;;;17.30;;
65871;SDS011;52653;50.080;21.992;2023-12-29T10:47:53;23.60;;;16.90;;
65871;SDS011;52653;50.080;21.992;2023-12-29T10:50:45;24.70;;;17.40;;
65871;SDS011;52653;50.080;21.992;2023-12-29T10:53:40;22.50;;;16.30;;
65871;SDS011;52653;50.080;21.992;2023-12-29T10:56:39;22.20;;;16.00;;
65871;SDS011;52653;50.080;21.992;2023-12-29T10:59:55;23.70;;;17.20;;
65871;SDS011;52653;50.080;21.992;2023-12-29T11:02:57;24.20;;;16.20;;
65871;SDS011;52653;50.080;21.992;2023-12-29T11:05:35;20.80;;;15.30;;
65871;SDS011;52653;50.080;21.992;2023-12-29T11:08:29;22.10;;;16.30;;
65871;SDS011;52653;50.080;21.992;2023-12-29T11:11:24;21.20;;;15.40;;
65871;SDS011;52653;50.080;21.992;2023-12-29T11:14:18;20.30;;;15.30;;
65871;SDS011;52653;50.080;21.992;2023-12-29T11:17:33;21.20;;;14.90;;
65871;SDS011;52653;50.080;21.992;2023-12-29T11:20:26;20.80;;;15.40;;
65871;SDS011;52653;50.080;21.992;2023-12-29T11:23:23;20.00;;;14.80;;
65871;SDS011;52653;50.080;21.992;2023-12-29T11:26:16;21.10;;;14.60;;
65871;SDS011;52653;50.080;21.992;2023-12-29T11:29:10;19.60;;;13.80;;
65871;SDS011;52653;50.080;21.992;2023-12-29T11:32:06;20.70;;;15.00;;
65871;SDS011;52653;50.080;21.992;2023-12-29T11:35:26;19.90;;;14.20;;
65871;SDS011;52653;50.080;21.992;2023-12-29T11:38:48;20.50;;;14.80;;
65871;SDS011;52653;50.080;21.992;2023-12-29T11:41:47;20.40;;;13.90;;
65871;SDS011;52653;50.080;21.992;2023-12-29T11:44:48;19.20;;;13.40;;
65871;SDS011;52653;50.080;21.992;2023-12-29T11:47:40;18.20;;;13.30;;
65871;SDS011;52653;50.080;21.992;2023-12-29T11:50:36;21.00;;;14.60;;
65871;SDS011;52653;50.080;21.992;2023-12-29T11:56:35;20.00;;;13.60;;
65871;SDS011;52653;50.080;21.992;2023-12-29T11:59:33;20.30;;;13.60;;
65871;SDS011;52653;50.080;21.992;2023-12-29T12:06:10;18.00;;;13.60;;
65871;SDS011;52653;50.080;21.992;2023-12-29T12:09:16;18.50;;;12.90;;
65871;SDS011;52653;50.080;21.992;2023-12-29T12:12:12;19.20;;;13.40;;
65871;SDS011;52653;50.080;21.992;2023-12-29T12:15:32;17.00;;;12.20;;
65871;SDS011;52653;50.080;21.992;2023-12-29T12:18:28;18.80;;;13.60;;
65871;SDS011;52653;50.080;21.992;2023-12-29T12:21:23;18.80;;;13.30;;
65871;SDS011;52653;50.080;21.992;2023-12-29T12:24:18;17.70;;;12.60;;
65871;SDS011;52653;50.080;21.992;2023-12-29T12:27:11;19.80;;;14.10;;
65871;SDS011;52653;50.080;21.992;2023-12-29T12:30:05;20.20;;;14.60;;
65871;SDS011;52653;50.080;21.992;2023-12-29T12:32:58;18.00;;;12.70;;
65871;SDS011;52653;50.080;21.992;2023-12-29T12:36:00;17.30;;;12.90;;
65871;SDS011;52653;50.080;21.992;2023-12-29T12:38:52;18.20;;;12.80;;
65871;SDS011;52653;50.080;21.992;2023-12-29T12:41:47;18.00;;;12.90;;
65871;SDS011;52653;50.080;21.992;2023-12-29T12:45:03;17.60;;;13.00;;
65871;SDS011;52653;50.080;21.992;2023-12-29T12:48:09;20.60;;;14.00;;
65871;SDS011;52653;50.080;21.992;2023-12-29T12:50:59;18.60;;;13.30;;
65871;SDS011;52653;50.080;21.992;2023-12-29T12:53:52;19.30;;;14.20;;
65871;SDS011;52653;50.080;21.992;2023-12-29T12:56:46;19.80;;;14.30;;
65871;SDS011;52653;50.080;21.992;2023-12-29T12:59:36;19.80;;;13.90;;
65871;SDS011;52653;50.080;21.992;2023-12-29T13:02:30;20.80;;;14.10;;
65871;SDS011;52653;50.080;21.992;2023-12-29T13:05:25;19.20;;;14.20;;
65871;SDS011;52653;50.080;21.992;2023-12-29T13:08:18;22.60;;;14.90;;
65871;SDS011;52653;50.080;21.992;2023-12-29T13:11:23;20.50;;;14.10;;
65871;SDS011;52653;50.080;21.992;2023-12-29T13:14:22;21.90;;;14.50;;
65871;SDS011;52653;50.080;21.992;2023-12-29T13:17:15;23.20;;;15.80;;
65871;SDS011;52653;50.080;21.992;2023-12-29T13:20:03;22.30;;;16.10;;
65871;SDS011;52653;50.080;21.992;2023-12-29T13:22:58;26.00;;;18.00;;
65871;SDS011;52653;50.080;21.992;2023-12-29T13:25:44;23.30;;;15.60;;
65871;SDS011;52653;50.080;21.992;2023-12-29T13:28:39;25.00;;;16.50;;
65871;SDS011;52653;50.080;21.992;2023-12-29T13:31:34;22.70;;;15.60;;
65871;SDS011;52653;50.080;21.992;2023-12-29T13:34:29;23.00;;;16.10;;
65871;SDS011;52653;50.080;21.992;2023-12-29T13:37:32;22.60;;;16.00;;
65871;SDS011;52653;50.080;21.992;2023-12-29T13:40:34;23.90;;;15.60;;
65871;SDS011;52653;50.080;21.992;2023-12-29T13:43:34;23.90;;;16.50;;
65871;SDS011;52653;50.080;21.992;2023-12-29T13:46:32;23.10;;;16.80;;
65871;SDS011;52653;50.080;21.992;2023-12-29T13:49:50;23.50;;;17.10;;
65871;SDS011;52653;50.080;21.992;2023-12-29T13:53:05;23.20;;;17.30;;
65871;SDS011;52653;50.080;21.992;2023-12-29T13:56:06;21.90;;;16.40;;
65871;SDS011;52653;50.080;21.992;2023-12-29T13:58:59;23.30;;;16.90;;
65871;SDS011;52653;50.080;21.992;2023-12-29T14:01:43;25.50;;;17.00;;
65871;SDS011;52653;50.080;21.992;2023-12-29T14:04:36;24.50;;;17.00;;
65871;SDS011;52653;50.080;21.992;2023-12-29T14:07:29;24.30;;;17.90;;
65871;SDS011;52653;50.080;21.992;2023-12-29T14:10:23;24.10;;;18.10;;
65871;SDS011;52653;50.080;21.992;2023-12-29T14:13:20;26.90;;;18.70;;
65871;SDS011;52653;50.080;21.992;2023-12-29T14:16:13;29.80;;;18.50;;
65871;SDS011;52653;50.080;21.992;2023-12-29T14:19:10;27.00;;;19.00;;
65871;SDS011;52653;50.080;21.992;2023-12-29T14:22:04;29.10;;;18.40;;
65871;SDS011;52653;50.080;21.992;2023-12-29T14:25:03;38.40;;;25.50;;
65871;SDS011;52653;50.080;21.992;2023-12-29T14:27:59;46.00;;;29.30;;
65871;SDS011;52653;50.080;21.992;2023-12-29T14:31:00;27.80;;;20.20;;
65871;SDS011;52653;50.080;21.992;2023-12-29T14:33:53;29.70;;;21.90;;
65871;SDS011;52653;50.080;21.992;2023-12-29T14:36:50;30.80;;;22.50;;
65871;SDS011;52653;50.080;21.992;2023-12-29T14:39:48;30.60;;;24.90;;
65871;SDS011;52653;50.080;21.992;2023-12-29T14:42:41;34.80;;;25.50;;
65871;SDS011;52653;50.080;21.992;2023-12-29T14:45:34;37.30;;;27.70;;
65871;SDS011;52653;50.080;21.992;2023-12-29T14:48:29;42.50;;;29.60;;
65871;SDS011;52653;50.080;21.992;2023-12-29T14:51:17;41.80;;;31.70;;
65871;SDS011;52653;50.080;21.992;2023-12-29T14:54:15;33.50;;;26.60;;
65871;SDS011;52653;50.080;21.992;2023-12-29T14:57:10;33.90;;;24.40;;
65871;SDS011;52653;50.080;21.992;2023-12-29T15:00:02;31.70;;;23.80;;
65871;SDS011;52653;50.080;21.992;2023-12-29T15:02:59;31.30;;;23.30;;
65871;SDS011;52653;50.080;21.992;2023-12-29T15:05:52;33.00;;;24.00;;
65871;SDS011;52653;50.080;21.992;2023-12-29T15:08:48;33.40;;;23.80;;
65871;SDS011;52653;50.080;21.992;2023-12-29T15:11:40;31.90;;;23.00;;
65871;SDS011;52653;50.080;21.992;2023-12-29T15:14:34;38.70;;;25.30;;
65871;SDS011;52653;50.080;21.992;2023-12-29T15:17:20;36.10;;;24.50;;
65871;SDS011;52653;50.080;21.992;2023-12-29T15:20:16;33.70;;;24.10;;
65871;SDS011;52653;50.080;21.992;2023-12-29T15:23:13;35.70;;;24.00;;
65871;SDS011;52653;50.080;21.992;2023-12-29T15:26:07;33.90;;;24.40;;
65871;SDS011;52653;50.080;21.992;2023-12-29T15:29:10;39.10;;;26.60;;
65871;SDS011;52653;50.080;21.992;2023-12-29T15:32:04;43.60;;;29.80;;
65871;SDS011;52653;50.080;21.992;2023-12-29T15:34:56;51.50;;;34.60;;
65871;SDS011;52653;50.080;21.992;2023-12-29T15:37:38;48.40;;;31.50;;
65871;SDS011;52653;50.080;21.992;2023-12-29T15:40:36;52.00;;;33.90;;
65871;SDS011;52653;50.080;21.992;2023-12-29T15:43:30;44.70;;;30.10;;
65871;SDS011;52653;50.080;21.992;2023-12-29T15:46:23;44.20;;;29.40;;
65871;SDS011;52653;50.080;21.992;2023-12-29T15:49:16;48.60;;;32.00;;
65871;SDS011;52653;50.080;21.992;2023-12-29T15:51:59;45.50;;;30.10;;
65871;SDS011;52653;50.080;21.992;2023-12-29T15:54:42;44.00;;;30.60;;
65871;SDS011;52653;50.080;21.992;2023-12-29T15:57:37;41.20;;;29.40;;
65871;SDS011;52653;50.080;21.992;2023-12-29T16:00:32;40.10;;;27.30;;
65871;SDS011;52653;50.080;21.992;2023-12-29T16:03:25;39.60;;;27.50;;
65871;SDS011;52653;50.080;21.992;2023-12-29T16:06:21;37.20;;;26.10;;
65871;SDS011;52653;50.080;21.992;2023-12-29T16:09:15;41.00;;;28.10;;
65871;SDS011;52653;50.080;21.992;2023-12-29T16:12:08;38.60;;;27.20;;
65871;SDS011;52653;50.080;21.992;2023-12-29T16:15:01;38.10;;;26.40;;
65871;SDS011;52653;50.080;21.992;2023-12-29T16:17:54;41.00;;;27.90;;
65871;SDS011;52653;50.080;21.992;2023-12-29T16:20:38;42.80;;;28.00;;
65871;SDS011;52653;50.080;21.992;2023-12-29T16:23:31;42.60;;;27.90;;
65871;SDS011;52653;50.080;21.992;2023-12-29T16:26:25;45.00;;;29.20;;
65871;SDS011;52653;50.080;21.992;2023-12-29T16:29:23;42.40;;;28.90;;
65871;SDS011;52653;50.080;21.992;2023-12-29T16:32:08;42.50;;;29.80;;
65871;SDS011;52653;50.080;21.992;2023-12-29T16:35:06;43.90;;;30.60;;
65871;SDS011;52653;50.080;21.992;2023-12-29T16:37:47;42.70;;;29.40;;
65871;SDS011;52653;50.080;21.992;2023-12-29T16:40:45;40.30;;;28.20;;
65871;SDS011;52653;50.080;21.992;2023-12-29T16:43:38;41.50;;;27.70;;
65871;SDS011;52653;50.080;21.992;2023-12-29T16:46:31;42.10;;;27.70;;
65871;SDS011;52653;50.080;21.992;2023-12-29T16:49:25;41.80;;;28.20;;
65871;SDS011;52653;50.080;21.992;2023-12-29T16:52:11;40.70;;;26.60;;